sensor_id;sensor_type;location;lat;lon;timestamp;pressure;altitude;pressure_sealevel;temperature;humidity
71996;BME280;59862;47.732;7.346;2023-06-22T00:02:25;97993.86;;;21.38;75.31
71996;BME280;59862;47.732;7.346;2023-06-22T00:04:53;97984.87;;;21.37;75.13
71996;BME280;59862;47.732;7.346;2023-06-22T00:07:20;97986.77;;;21.37;75.36
71996;BME280;59862;47.732;7.346;2023-06-22T00:09:48;97982.09;;;21.35;75.79
71996;BME280;59862;47.732;7.346;2023-06-22T00:12:15;97982.89;;;21.33;75.77
71996;BME280;59862;47.732;7.346;2023-06-22T00:14:43;97986.91;;;21.28;75.73
71996;BME280;59862;47.732;7.346;2023-06-22T00:17:10;97987.13;;;21.24;76.04
71996;BME280;59862;47.732;7.346;2023-06-22T00:19:37;97990.08;;;21.20;76.41
71996;BME280;59862;47.732;7.346;2023-06-22T00:22:06;98000.82;;;21.09;76.86
71996;BME280;59862;47.732;7.346;2023-06-22T00:24:34;97992.86;;;21.05;77.12
71996;BME280;59862;47.732;7.346;2023-06-22T00:27:01;97975.22;;;20.96;77.93
71996;BME280;59862;47.732;7.346;2023-06-22T00:29:29;97979.83;;;20.93;78.26
71996;BME280;59862;47.732;7.346;2023-06-22T00:31:56;97989.02;;;20.87;78.11
71996;BME280;59862;47.732;7.346;2023-06-22T00:34:23;97981.31;;;20.84;78.47
71996;BME280;59862;47.732;7.346;2023-06-22T00:36:51;97977.53;;;20.85;78.59
71996;BME280;59862;47.732;7.346;2023-06-22T00:39:18;97976.95;;;20.83;78.47
71996;BME280;59862;47.732;7.346;2023-06-22T00:41:46;97979.08;;;20.81;78.37
71996;BME280;59862;47.732;7.346;2023-06-22T00:44:13;97972.77;;;20.78;78.97
71996;BME280;59862;47.732;7.346;2023-06-22T00:46:41;97971.84;;;20.73;78.85
71996;BME280;59862;47.732;7.346;2023-06-22T00:49:08;97972.06;;;20.69;78.93
71996;BME280;59862;47.732;7.346;2023-06-22T00:51:37;97960.32;;;20.68;79.14
71996;BME280;59862;47.732;7.346;2023-06-22T00:54:06;97970.08;;;20.64;79.50
71996;BME280;59862;47.732;7.346;2023-06-22T00:56:33;97982.23;;;20.57;79.49
71996;BME280;59862;47.732;7.346;2023-06-22T00:59:02;97979.09;;;20.48;79.57
71996;BME280;59862;47.732;7.346;2023-06-22T01:01:30;97979.41;;;20.35;80.89
71996;BME280;59862;47.732;7.346;2023-06-22T01:03:58;97971.30;;;20.40;80.90
71996;BME280;59862;47.732;7.346;2023-06-22T01:06:29;97978.32;;;20.36;80.83
71996;BME280;59862;47.732;7.346;2023-06-22T01:09:08;97992.10;;;20.29;80.81
71996;BME280;59862;47.732;7.346;2023-06-22T01:11:44;97983.14;;;20.31;80.81
71996;BME280;59862;47.732;7.346;2023-06-22T01:14:32;97972.50;;;20.30;81.07
71996;BME280;59862;47.732;7.346;2023-06-22T01:16:57;97969.45;;;20.26;81.13
71996;BME280;59862;47.732;7.346;2023-06-22T01:19:46;97978.98;;;20.26;80.93
71996;BME280;59862;47.732;7.346;2023-06-22T01:22:18;97971.97;;;20.30;80.89
71996;BME280;59862;47.732;7.346;2023-06-22T01:30:14;97973.35;;;20.19;80.75
71996;BME280;59862;47.732;7.346;2023-06-22T01:32:43;97974.92;;;20.15;81.11
71996;BME280;59862;47.732;7.346;2023-06-22T01:35:12;97969.77;;;20.16;80.94
71996;BME280;59862;47.732;7.346;2023-06-22T01:37:41;97965.17;;;20.19;80.72
71996;BME280;59862;47.732;7.346;2023-06-22T01:40:09;97962.45;;;20.19;80.68
71996;BME280;59862;47.732;7.346;2023-06-22T01:42:37;97969.77;;;20.16;80.73
71996;BME280;59862;47.732;7.346;2023-06-22T01:45:07;97977.95;;;20.16;80.80
71996;BME280;59862;47.732;7.346;2023-06-22T01:47:36;97967.00;;;20.13;80.83
71996;BME280;59862;47.732;7.346;2023-06-22T01:50:04;97957.52;;;20.16;80.99
71996;BME280;59862;47.732;7.346;2023-06-22T01:52:32;97964.02;;;20.15;81.02
71996;BME280;59862;47.732;7.346;2023-06-22T01:55:01;97956.88;;;20.11;81.38
71996;BME280;59862;47.732;7.346;2023-06-22T01:57:28;97960.44;;;20.12;81.82
71996;BME280;59862;47.732;7.346;2023-06-22T02:00:04;97959.03;;;20.09;81.74
71996;BME280;59862;47.732;7.346;2023-06-22T02:02:43;97950.70;;;20.16;81.74
71996;BME280;59862;47.732;7.346;2023-06-22T02:05:08;97945.27;;;20.18;81.60
71996;BME280;59862;47.732;7.346;2023-06-22T02:07:42;97945.25;;;20.16;81.66
71996;BME280;59862;47.732;7.346;2023-06-22T02:10:10;97948.51;;;20.15;81.87
71996;BME280;59862;47.732;7.346;2023-06-22T02:12:41;97950.45;;;20.17;81.97
71996;BME280;59862;47.732;7.346;2023-06-22T02:15:10;97950.97;;;20.17;82.06
71996;BME280;59862;47.732;7.346;2023-06-22T02:17:39;97942.53;;;20.16;82.08
71996;BME280;59862;47.732;7.346;2023-06-22T02:20:12;97942.22;;;20.15;82.26
71996;BME280;59862;47.732;7.346;2023-06-22T02:22:39;97944.74;;;20.19;82.17
71996;BME280;59862;47.732;7.346;2023-06-22T02:25:08;97943.91;;;20.18;82.06
71996;BME280;59862;47.732;7.346;2023-06-22T02:27:35;97938.14;;;20.15;82.22
71996;BME280;59862;47.732;7.346;2023-06-22T02:30:06;97933.52;;;20.15;82.27
71996;BME280;59862;47.732;7.346;2023-06-22T02:32:35;97931.12;;;20.19;82.28
71996;BME280;59862;47.732;7.346;2023-06-22T02:35:02;97925.39;;;20.18;82.39
71996;BME280;59862;47.732;7.346;2023-06-22T02:37:35;97930.02;;;20.17;82.49
71996;BME280;59862;47.732;7.346;2023-06-22T02:40:06;97932.11;;;20.13;82.62
71996;BME280;59862;47.732;7.346;2023-06-22T02:42:36;97930.27;;;20.02;83.07
71996;BME280;59862;47.732;7.346;2023-06-22T02:45:04;97934.36;;;20.02;83.46
71996;BME280;59862;47.732;7.346;2023-06-22T02:47:32;97927.59;;;20.04;83.46
71996;BME280;59862;47.732;7.346;2023-06-22T02:50:00;97928.70;;;20.06;83.45
71996;BME280;59862;47.732;7.346;2023-06-22T02:52:28;97934.08;;;20.01;83.66
71996;BME280;59862;47.732;7.346;2023-06-22T02:54:55;97931.58;;;19.99;83.85
71996;BME280;59862;47.732;7.346;2023-06-22T02:57:22;97928.37;;;20.02;83.74
71996;BME280;59862;47.732;7.346;2023-06-22T02:59:50;97928.63;;;20.01;83.80
71996;BME280;59862;47.732;7.346;2023-06-22T03:02:17;97930.78;;;19.99;83.88
71996;BME280;59862;47.732;7.346;2023-06-22T03:04:46;97925.03;;;19.98;84.14
71996;BME280;59862;47.732;7.346;2023-06-22T03:07:16;97927.65;;;19.93;84.20
71996;BME280;59862;47.732;7.346;2023-06-22T03:09:43;97924.91;;;19.90;84.40
71996;BME280;59862;47.732;7.346;2023-06-22T03:12:11;97920.98;;;19.86;84.55
71996;BME280;59862;47.732;7.346;2023-06-22T03:14:39;97920.23;;;19.74;84.98
71996;BME280;59862;47.732;7.346;2023-06-22T03:17:06;97925.15;;;19.75;85.30
71996;BME280;59862;47.732;7.346;2023-06-22T03:19:34;97925.92;;;19.73;85.46
71996;BME280;59862;47.732;7.346;2023-06-22T03:22:01;97925.34;;;19.71;85.49
71996;BME280;59862;47.732;7.346;2023-06-22T03:24:29;97916.56;;;19.68;85.50
71996;BME280;59862;47.732;7.346;2023-06-22T03:26:56;97923.30;;;19.63;85.67
71996;BME280;59862;47.732;7.346;2023-06-22T03:29:24;97921.82;;;19.58;86.00
71996;BME280;59862;47.732;7.346;2023-06-22T03:31:52;97919.30;;;19.54;86.33
71996;BME280;59862;47.732;7.346;2023-06-22T03:34:19;97919.44;;;19.48;86.72
71996;BME280;59862;47.732;7.346;2023-06-22T03:36:46;97911.41;;;19.41;87.17
71996;BME280;59862;47.732;7.346;2023-06-22T03:39:14;97911.86;;;19.36;87.67
71996;BME280;59862;47.732;7.346;2023-06-22T03:41:41;97921.64;;;19.25;88.68
71996;BME280;59862;47.732;7.346;2023-06-22T03:44:09;97917.34;;;19.27;88.97
71996;BME280;59862;47.732;7.346;2023-06-22T03:46:38;97913.27;;;19.27;89.09
71996;BME280;59862;47.732;7.346;2023-06-22T03:49:05;97916.05;;;19.29;89.15
71996;BME280;59862;47.732;7.346;2023-06-22T03:51:33;97915.09;;;19.24;89.40
71996;BME280;59862;47.732;7.346;2023-06-22T03:54:01;97915.16;;;19.26;89.50
71996;BME280;59862;47.732;7.346;2023-06-22T03:56:28;97922.02;;;19.29;89.34
71996;BME280;59862;47.732;7.346;2023-06-22T03:58:55;97915.16;;;19.26;89.63
71996;BME280;59862;47.732;7.346;2023-06-22T04:01:23;97910.30;;;19.28;89.56
71996;BME280;59862;47.732;7.346;2023-06-22T04:03:50;97912.43;;;19.26;89.49
71996;BME280;59862;47.732;7.346;2023-06-22T04:06:18;97911.96;;;19.29;89.64
71996;BME280;59862;47.732;7.346;2023-06-22T04:08:46;97865.28;;;19.09;89.30
71996;BME280;59862;47.732;7.346;2023-06-22T04:11:18;97918.77;;;19.29;89.48
71996;BME280;59862;47.732;7.346;2023-06-22T04:13:45;97922.19;;;19.36;89.51
71996;BME280;59862;47.732;7.346;2023-06-22T04:16:14;97922.49;;;19.37;89.42
71996;BME280;59862;47.732;7.346;2023-06-22T04:18:42;97922.61;;;19.42;89.21
71996;BME280;59862;47.732;7.346;2023-06-22T04:21:10;97927.94;;;19.37;89.58
71996;BME280;59862;47.732;7.346;2023-06-22T04:23:37;97936.48;;;19.43;89.65
71996;BME280;59862;47.732;7.346;2023-06-22T04:26:05;97935.71;;;19.45;89.50
71996;BME280;59862;47.732;7.346;2023-06-22T04:28:32;97939.02;;;19.47;89.35
71996;BME280;59862;47.732;7.346;2023-06-22T04:31:03;97929.66;;;19.55;88.98
71996;BME280;59862;47.732;7.346;2023-06-22T04:33:32;97930.05;;;19.61;88.73
71996;BME280;59862;47.732;7.346;2023-06-22T04:35:59;97930.88;;;19.61;88.46
71996;BME280;59862;47.732;7.346;2023-06-22T04:38:30;97918.23;;;19.70;88.48
71996;BME280;59862;47.732;7.346;2023-06-22T04:40:59;97922.64;;;19.73;88.15
71996;BME280;59862;47.732;7.346;2023-06-22T04:43:29;97915.89;;;19.76;87.85
71996;BME280;59862;47.732;7.346;2023-06-22T04:45:57;97912.00;;;19.72;87.65
71996;BME280;59862;47.732;7.346;2023-06-22T04:48:26;97915.69;;;19.80;87.77
71996;BME280;59862;47.732;7.346;2023-06-22T04:50:55;97916.52;;;19.80;87.69
71996;BME280;59862;47.732;7.346;2023-06-22T04:53:25;97914.18;;;19.86;87.42
71996;BME280;59862;47.732;7.346;2023-06-22T04:55:54;97920.77;;;19.88;87.14
71996;BME280;59862;47.732;7.346;2023-06-22T04:58:21;97909.14;;;19.92;87.17
71996;BME280;59862;47.732;7.346;2023-06-22T05:00:49;97901.14;;;20.02;86.92
71996;BME280;59862;47.732;7.346;2023-06-22T05:03:18;97897.47;;;20.11;86.43
71996;BME280;59862;47.732;7.346;2023-06-22T05:05:45;97892.14;;;20.18;85.97
71996;BME280;59862;47.732;7.346;2023-06-22T05:08:14;97902.81;;;20.20;85.57
71996;BME280;59862;47.732;7.346;2023-06-22T05:10:41;97906.26;;;20.29;85.13
71996;BME280;59862;47.732;7.346;2023-06-22T05:13:09;97903.16;;;20.40;84.79
71996;BME280;59862;47.732;7.346;2023-06-22T05:15:36;97909.27;;;20.47;84.23
71996;BME280;59862;47.732;7.346;2023-06-22T05:18:06;97896.52;;;20.50;84.45
71996;BME280;59862;47.732;7.346;2023-06-22T05:20:34;97890.95;;;20.59;83.74
71996;BME280;59862;47.732;7.346;2023-06-22T05:23:02;97890.60;;;20.72;83.39
71996;BME280;59862;47.732;7.346;2023-06-22T05:25:30;97895.88;;;20.79;83.21
71996;BME280;59862;47.732;7.346;2023-06-22T05:27:59;97889.80;;;20.93;82.82
71996;BME280;59862;47.732;7.346;2023-06-22T05:30:27;97887.53;;;21.04;82.18
71996;BME280;59862;47.732;7.346;2023-06-22T05:32:55;97890.27;;;21.04;82.02
71996;BME280;59862;47.732;7.346;2023-06-22T05:35:22;97909.71;;;21.10;81.65
71996;BME280;59862;47.732;7.346;2023-06-22T05:37:50;97909.34;;;21.24;80.95
71996;BME280;59862;47.732;7.346;2023-06-22T05:40:18;97901.38;;;21.20;80.47
71996;BME280;59862;47.732;7.346;2023-06-22T05:42:45;97908.47;;;21.21;80.55
71996;BME280;59862;47.732;7.346;2023-06-22T05:45:13;97915.17;;;21.10;80.66
71996;BME280;59862;47.732;7.346;2023-06-22T05:47:40;97919.91;;;21.18;80.51
71996;BME280;59862;47.732;7.346;2023-06-22T05:50:08;97928.56;;;21.34;80.42
71996;BME280;59862;47.732;7.346;2023-06-22T05:52:36;97934.63;;;21.38;79.63
71996;BME280;59862;47.732;7.346;2023-06-22T05:55:04;97940.44;;;21.44;79.75
71996;BME280;59862;47.732;7.346;2023-06-22T05:57:31;97939.83;;;21.59;79.12
71996;BME280;59862;47.732;7.346;2023-06-22T05:59:59;97940.56;;;21.76;78.67
71996;BME280;59862;47.732;7.346;2023-06-22T06:02:26;97927.41;;;21.95;78.11
71996;BME280;59862;47.732;7.346;2023-06-22T06:04:54;97929.45;;;22.09;76.55
71996;BME280;59862;47.732;7.346;2023-06-22T06:07:21;97931.27;;;22.25;76.01
71996;BME280;59862;47.732;7.346;2023-06-22T06:09:49;97940.48;;;22.48;75.56
71996;BME280;59862;47.732;7.346;2023-06-22T06:12:16;97952.14;;;22.66;74.54
71996;BME280;59862;47.732;7.346;2023-06-22T06:14:44;97959.66;;;22.83;73.31
71996;BME280;59862;47.732;7.346;2023-06-22T06:17:11;97963.77;;;22.80;73.17
71996;BME280;59862;47.732;7.346;2023-06-22T06:19:39;97978.04;;;22.85;72.92
71996;BME280;59862;47.732;7.346;2023-06-22T06:22:07;97999.31;;;22.78;73.67
71996;BME280;59862;47.732;7.346;2023-06-22T06:24:34;98007.37;;;22.60;72.95
71996;BME280;59862;47.732;7.346;2023-06-22T06:27:01;98001.94;;;22.38;74.12
71996;BME280;59862;47.732;7.346;2023-06-22T06:29:31;97973.28;;;22.43;74.24
71996;BME280;59862;47.732;7.346;2023-06-22T06:31:59;97962.36;;;22.48;74.54
71996;BME280;59862;47.732;7.346;2023-06-22T06:34:26;97961.30;;;22.49;74.84
71996;BME280;59862;47.732;7.346;2023-06-22T06:36:54;97974.05;;;22.68;75.09
71996;BME280;59862;47.732;7.346;2023-06-22T06:39:21;97970.41;;;22.92;74.06
71996;BME280;59862;47.732;7.346;2023-06-22T06:41:49;97971.82;;;22.97;73.44
71996;BME280;59862;47.732;7.346;2023-06-22T06:44:16;97989.09;;;23.00;73.03
71996;BME280;59862;47.732;7.346;2023-06-22T06:46:43;97986.14;;;23.11;73.28
71996;BME280;59862;47.732;7.346;2023-06-22T06:49:11;97985.69;;;23.24;72.85
71996;BME280;59862;47.732;7.346;2023-06-22T06:51:39;98000.48;;;23.23;72.83
71996;BME280;59862;47.732;7.346;2023-06-22T06:56:33;98013.83;;;23.17;73.53
71996;BME280;59862;47.732;7.346;2023-06-22T06:59:00;98012.36;;;23.02;73.39
71996;BME280;59862;47.732;7.346;2023-06-22T07:01:28;97995.67;;;23.01;73.50
71996;BME280;59862;47.732;7.346;2023-06-22T07:03:57;98012.00;;;23.30;73.14
71996;BME280;59862;47.732;7.346;2023-06-22T07:06:24;98011.77;;;23.32;72.52
71996;BME280;59862;47.732;7.346;2023-06-22T07:08:54;98022.59;;;23.14;73.01
71996;BME280;59862;47.732;7.346;2023-06-22T07:11:22;98024.95;;;23.38;72.49
71996;BME280;59862;47.732;7.346;2023-06-22T07:13:49;98040.66;;;23.52;72.34
71996;BME280;59862;47.732;7.346;2023-06-22T07:16:16;97993.36;;;23.72;72.33
71996;BME280;59862;47.732;7.346;2023-06-22T07:18:44;98010.98;;;23.88;71.37
71996;BME280;59862;47.732;7.346;2023-06-22T07:21:12;98021.69;;;23.97;70.77
71996;BME280;59862;47.732;7.346;2023-06-22T07:23:39;98015.62;;;23.85;70.54
71996;BME280;59862;47.732;7.346;2023-06-22T07:26:06;98033.11;;;23.74;70.02
71996;BME280;59862;47.732;7.346;2023-06-22T07:28:34;97988.19;;;23.80;71.44
71996;BME280;59862;47.732;7.346;2023-06-22T07:31:03;98030.58;;;24.15;70.47
71996;BME280;59862;47.732;7.346;2023-06-22T07:33:31;98024.32;;;24.32;69.09
71996;BME280;59862;47.732;7.346;2023-06-22T07:35:58;98009.78;;;24.41;68.31
71996;BME280;59862;47.732;7.346;2023-06-22T07:38:26;97993.36;;;24.49;67.96
71996;BME280;59862;47.732;7.346;2023-06-22T07:40:53;97972.25;;;24.64;68.72
71996;BME280;59862;47.732;7.346;2023-06-22T07:43:21;97982.97;;;25.01;68.39
71996;BME280;59862;47.732;7.346;2023-06-22T07:45:52;97992.53;;;25.26;67.18
71996;BME280;59862;47.732;7.346;2023-06-22T07:48:22;97983.20;;;25.42;66.54
71996;BME280;59862;47.732;7.346;2023-06-22T07:50:50;97962.55;;;25.52;64.86
71996;BME280;59862;47.732;7.346;2023-06-22T07:53:19;97961.06;;;25.80;64.50
71996;BME280;59862;47.732;7.346;2023-06-22T07:55:47;97975.46;;;25.52;63.71
71996;BME280;59862;47.732;7.346;2023-06-22T07:58:14;97976.30;;;25.35;64.80
71996;BME280;59862;47.732;7.346;2023-06-22T08:00:42;97984.34;;;24.81;67.77
71996;BME280;59862;47.732;7.346;2023-06-22T08:03:09;97980.98;;;24.34;69.08
71996;BME280;59862;47.732;7.346;2023-06-22T08:05:37;97973.33;;;24.53;69.29
71996;BME280;59862;47.732;7.346;2023-06-22T08:08:04;97950.57;;;24.78;68.77
71996;BME280;59862;47.732;7.346;2023-06-22T08:10:32;97932.15;;;24.31;67.99
71996;BME280;59862;47.732;7.346;2023-06-22T08:13:00;97917.89;;;24.87;68.05
71996;BME280;59862;47.732;7.346;2023-06-22T08:15:28;97905.83;;;24.40;68.60
71996;BME280;59862;47.732;7.346;2023-06-22T08:17:56;97901.16;;;24.70;67.46
71996;BME280;59862;47.732;7.346;2023-06-22T08:20:24;97900.08;;;24.49;68.47
71996;BME280;59862;47.732;7.346;2023-06-22T08:22:52;97894.59;;;24.79;68.29
71996;BME280;59862;47.732;7.346;2023-06-22T08:25:20;97885.45;;;25.16;66.86
71996;BME280;59862;47.732;7.346;2023-06-22T08:27:48;97870.89;;;25.18;66.88
71996;BME280;59862;47.732;7.346;2023-06-22T08:30:16;97856.86;;;25.25;64.86
71996;BME280;59862;47.732;7.346;2023-06-22T08:32:45;97844.16;;;25.34;63.83
71996;BME280;59862;47.732;7.346;2023-06-22T08:35:12;97840.92;;;25.19;64.42
71996;BME280;59862;47.732;7.346;2023-06-22T08:37:39;97850.30;;;25.16;64.43
71996;BME280;59862;47.732;7.346;2023-06-22T08:40:09;97853.63;;;25.08;64.96
71996;BME280;59862;47.732;7.346;2023-06-22T08:42:37;97856.81;;;25.30;65.32
71996;BME280;59862;47.732;7.346;2023-06-22T08:45:06;97860.27;;;25.61;63.88
71996;BME280;59862;47.732;7.346;2023-06-22T08:47:34;97870.23;;;25.41;64.08
71996;BME280;59862;47.732;7.346;2023-06-22T08:50:01;97878.48;;;25.41;64.16
71996;BME280;59862;47.732;7.346;2023-06-22T08:52:30;97877.16;;;25.31;64.19
71996;BME280;59862;47.732;7.346;2023-06-22T08:54:58;97879.75;;;24.85;64.74
71996;BME280;59862;47.732;7.346;2023-06-22T08:57:25;97866.86;;;24.83;65.14
71996;BME280;59862;47.732;7.346;2023-06-22T08:59:53;97853.34;;;25.04;63.91
71996;BME280;59862;47.732;7.346;2023-06-22T09:02:22;97838.48;;;25.10;65.08
71996;BME280;59862;47.732;7.346;2023-06-22T09:04:49;97846.36;;;25.34;63.22
71996;BME280;59862;47.732;7.346;2023-06-22T09:07:18;97863.38;;;25.34;63.82
71996;BME280;59862;47.732;7.346;2023-06-22T09:09:48;97874.80;;;24.92;64.82
71996;BME280;59862;47.732;7.346;2023-06-22T09:12:15;97865.16;;;25.00;66.40
71996;BME280;59862;47.732;7.346;2023-06-22T09:14:42;97891.02;;;24.76;65.56
71996;BME280;59862;47.732;7.346;2023-06-22T09:17:10;97890.19;;;24.53;66.53
71996;BME280;59862;47.732;7.346;2023-06-22T09:19:37;97871.26;;;24.41;66.61
71996;BME280;59862;47.732;7.346;2023-06-22T09:22:05;97842.16;;;24.60;66.37
71996;BME280;59862;47.732;7.346;2023-06-22T09:24:33;97860.83;;;24.83;66.31
71996;BME280;59862;47.732;7.346;2023-06-22T09:27:00;97883.87;;;24.90;66.42
71996;BME280;59862;47.732;7.346;2023-06-22T09:29:28;97888.24;;;24.94;66.44
71996;BME280;59862;47.732;7.346;2023-06-22T09:31:55;97873.46;;;24.74;65.82
71996;BME280;59862;47.732;7.346;2023-06-22T09:34:23;97863.56;;;24.61;66.86
71996;BME280;59862;47.732;7.346;2023-06-22T09:36:50;97860.83;;;24.78;66.68
71996;BME280;59862;47.732;7.346;2023-06-22T09:39:20;97839.31;;;25.13;65.61
71996;BME280;59862;47.732;7.346;2023-06-22T09:41:48;97843.80;;;25.58;63.98
71996;BME280;59862;47.732;7.346;2023-06-22T09:44:15;97838.00;;;26.03;63.35
71996;BME280;59862;47.732;7.346;2023-06-22T09:46:43;97822.61;;;26.05;62.96
71996;BME280;59862;47.732;7.346;2023-06-22T09:49:11;97830.67;;;25.47;63.73
71996;BME280;59862;47.732;7.346;2023-06-22T09:51:38;97839.34;;;25.70;63.98
71996;BME280;59862;47.732;7.346;2023-06-22T09:54:05;97835.46;;;25.73;63.39
71996;BME280;59862;47.732;7.346;2023-06-22T09:56:33;97827.20;;;25.76;63.57
71996;BME280;59862;47.732;7.346;2023-06-22T09:59:00;97838.30;;;26.02;63.63
71996;BME280;59862;47.732;7.346;2023-06-22T10:01:28;97850.95;;;26.03;63.39
71996;BME280;59862;47.732;7.346;2023-06-22T10:03:56;97846.54;;;26.09;63.15
71996;BME280;59862;47.732;7.346;2023-06-22T10:06:24;97851.59;;;26.31;62.79
71996;BME280;59862;47.732;7.346;2023-06-22T10:08:52;97850.55;;;26.24;62.99
71996;BME280;59862;47.732;7.346;2023-06-22T10:11:19;97853.11;;;26.13;62.75
71996;BME280;59862;47.732;7.346;2023-06-22T10:13:48;97860.58;;;26.03;63.21
71996;BME280;59862;47.732;7.346;2023-06-22T10:16:16;97873.61;;;25.85;63.90
71996;BME280;59862;47.732;7.346;2023-06-22T10:18:43;97886.54;;;25.82;64.31
71996;BME280;59862;47.732;7.346;2023-06-22T10:21:11;97873.28;;;25.94;64.11
71996;BME280;59862;47.732;7.346;2023-06-22T10:23:38;97875.34;;;26.17;64.22
71996;BME280;59862;47.732;7.346;2023-06-22T10:26:06;97882.45;;;26.23;63.99
71996;BME280;59862;47.732;7.346;2023-06-22T10:28:33;97878.91;;;26.20;64.46
71996;BME280;59862;47.732;7.346;2023-06-22T10:31:00;97880.75;;;26.29;62.48
71996;BME280;59862;47.732;7.346;2023-06-22T10:33:28;97878.47;;;26.42;63.60
71996;BME280;59862;47.732;7.346;2023-06-22T10:35:55;97884.20;;;26.45;62.47
71996;BME280;59862;47.732;7.346;2023-06-22T10:38:23;97900.41;;;26.49;62.99
71996;BME280;59862;47.732;7.346;2023-06-22T10:40:50;97890.36;;;26.32;63.43
71996;BME280;59862;47.732;7.346;2023-06-22T10:43:18;97887.47;;;26.50;63.65
71996;BME280;59862;47.732;7.346;2023-06-22T10:45:46;97874.29;;;26.80;61.90
71996;BME280;59862;47.732;7.346;2023-06-22T10:48:13;97865.16;;;27.11;61.44
71996;BME280;59862;47.732;7.346;2023-06-22T10:50:40;97877.77;;;27.41;59.77
71996;BME280;59862;47.732;7.346;2023-06-22T10:53:08;97875.34;;;27.37;60.46
71996;BME280;59862;47.732;7.346;2023-06-22T10:55:35;97885.55;;;27.57;60.68
71996;BME280;59862;47.732;7.346;2023-06-22T10:58:03;97906.25;;;27.55;59.92
71996;BME280;59862;47.732;7.346;2023-06-22T11:00:30;97916.45;;;27.31;61.10
71996;BME280;59862;47.732;7.346;2023-06-22T11:02:57;97924.56;;;27.20;61.65
71996;BME280;59862;47.732;7.346;2023-06-22T11:05:25;97939.79;;;27.41;61.72
71996;BME280;59862;47.732;7.346;2023-06-22T11:07:52;97931.77;;;27.42;60.87
71996;BME280;59862;47.732;7.346;2023-06-22T11:10:20;97923.27;;;27.10;61.21
71996;BME280;59862;47.732;7.346;2023-06-22T11:12:47;97894.69;;;27.03;62.10
71996;BME280;59862;47.732;7.346;2023-06-22T11:15:15;97883.61;;;27.37;61.87
71996;BME280;59862;47.732;7.346;2023-06-22T11:17:43;97896.55;;;27.39;61.14
71996;BME280;59862;47.732;7.346;2023-06-22T11:20:11;97895.79;;;27.31;61.95
71996;BME280;59862;47.732;7.346;2023-06-22T11:22:42;97906.06;;;27.49;62.24
71996;BME280;59862;47.732;7.346;2023-06-22T11:25:10;97914.59;;;27.24;62.61
71996;BME280;59862;47.732;7.346;2023-06-22T11:27:38;97920.33;;;27.01;62.60
71996;BME280;59862;47.732;7.346;2023-06-22T11:30:07;97927.94;;;26.47;63.99
71996;BME280;59862;47.732;7.346;2023-06-22T11:32:35;97935.19;;;26.38;64.94
71996;BME280;59862;47.732;7.346;2023-06-22T11:35:02;97947.73;;;26.51;64.21
71996;BME280;59862;47.732;7.346;2023-06-22T11:37:30;97949.17;;;26.44;63.98
71996;BME280;59862;47.732;7.346;2023-06-22T11:39:58;97950.26;;;26.45;63.46
71996;BME280;59862;47.732;7.346;2023-06-22T11:42:25;97957.36;;;26.51;62.95
71996;BME280;59862;47.732;7.346;2023-06-22T11:44:54;97951.07;;;26.48;61.68
71996;BME280;59862;47.732;7.346;2023-06-22T11:47:22;97955.45;;;26.49;60.28
71996;BME280;59862;47.732;7.346;2023-06-22T11:49:49;97951.06;;;26.51;59.74
71996;BME280;59862;47.732;7.346;2023-06-22T11:52:17;97959.91;;;26.40;59.77
71996;BME280;59862;47.732;7.346;2023-06-22T11:54:45;97967.69;;;26.33;60.51
71996;BME280;59862;47.732;7.346;2023-06-22T11:57:13;97961.77;;;26.11;62.74
71996;BME280;59862;47.732;7.346;2023-06-22T11:59:40;97960.38;;;26.06;64.14
71996;BME280;59862;47.732;7.346;2023-06-22T12:02:08;97954.41;;;25.91;64.82
71996;BME280;59862;47.732;7.346;2023-06-22T12:04:36;97953.63;;;25.86;66.16
71996;BME280;59862;47.732;7.346;2023-06-22T12:07:04;97958.09;;;25.67;66.80
71996;BME280;59862;47.732;7.346;2023-06-22T12:09:31;97963.05;;;25.65;66.77
71996;BME280;59862;47.732;7.346;2023-06-22T12:11:59;97956.17;;;25.67;66.85
71996;BME280;59862;47.732;7.346;2023-06-22T12:14:26;97955.33;;;25.72;66.70
71996;BME280;59862;47.732;7.346;2023-06-22T12:16:54;97959.32;;;25.97;66.17
71996;BME280;59862;47.732;7.346;2023-06-22T12:19:22;97957.38;;;26.05;65.70
71996;BME280;59862;47.732;7.346;2023-06-22T12:21:49;97958.77;;;26.00;65.55
71996;BME280;59862;47.732;7.346;2023-06-22T12:24:16;97957.67;;;26.01;65.82
71996;BME280;59862;47.732;7.346;2023-06-22T12:26:44;97964.03;;;25.94;65.43
71996;BME280;59862;47.732;7.346;2023-06-22T12:29:11;97967.00;;;26.05;65.49
71996;BME280;59862;47.732;7.346;2023-06-22T12:31:39;97967.20;;;26.21;65.00
71996;BME280;59862;47.732;7.346;2023-06-22T12:34:08;97969.92;;;26.26;64.06
71996;BME280;59862;47.732;7.346;2023-06-22T12:36:35;97961.33;;;26.38;63.67
71996;BME280;59862;47.732;7.346;2023-06-22T12:39:02;97961.16;;;26.19;63.79
71996;BME280;59862;47.732;7.346;2023-06-22T12:41:30;97966.40;;;26.20;64.25
71996;BME280;59862;47.732;7.346;2023-06-22T12:43:57;97966.89;;;26.25;63.93
71996;BME280;59862;47.732;7.346;2023-06-22T12:46:25;97947.28;;;26.39;64.22
71996;BME280;59862;47.732;7.346;2023-06-22T12:48:52;97941.00;;;26.67;63.17
71996;BME280;59862;47.732;7.346;2023-06-22T12:51:23;97940.61;;;26.84;63.54
71996;BME280;59862;47.732;7.346;2023-06-22T12:53:51;97940.47;;;26.65;60.89
71996;BME280;59862;47.732;7.346;2023-06-22T12:56:18;97928.33;;;26.35;59.55
71996;BME280;59862;47.732;7.346;2023-06-22T12:58:45;97920.61;;;26.37;58.66
71996;BME280;59862;47.732;7.346;2023-06-22T13:01:13;97910.57;;;26.51;57.75
71996;BME280;59862;47.732;7.346;2023-06-22T13:03:42;97902.91;;;26.82;57.34
71996;BME280;59862;47.732;7.346;2023-06-22T13:06:10;97909.50;;;27.10;54.57
71996;BME280;59862;47.732;7.346;2023-06-22T13:08:37;97906.05;;;27.23;53.79
71996;BME280;59862;47.732;7.346;2023-06-22T13:11:04;97893.90;;;27.02;52.69
71996;BME280;59862;47.732;7.346;2023-06-22T13:13:32;97892.03;;;26.95;53.12